»·PEaware :: N510CJ KEUG-74S

N510CJ :: KEUG-74S

FLIGHT INFORMATION

Flight Status: Arrived
Operator: Privately registered:
United States
More flights under this callsign
Pilot: John G. (2195)
Aircraft: CESSNA 510 CITATION MUSTANG
(C510)
More flights by this aircraft type
Origin: KEUG Mahlon Sweet
United States
Destination: 74S Anacortes
United States
More flights between these airports :: More routes between these airports
Route: EUG9 BTG J1 SEA
File this flight plan on PilotEdge
Remarks:
Altitude:
(Current/Filed)
26,000ft
Speed:
(Current/Filed)
280kts
Departed: 22-Dec-17 05:14 PM
Arrived: 22-Dec-17 06:25 PM
Distance/Time
Traveled:
264nm/1:10
Distance/Time
To Go:
Arrived

Flight Plot

Page will automatically refresh every two minutes.


Map Options




Map Legend


Flown Route
Filed Route
Departure Airport
Arrival Airport
Navaid (VOR, NDB)
Fix

Horizontal Profiles

Position Reports

Time Latitude Longitude Heading Altitude Ground
Speed
22-Dec-17 17:04 44.117558 -123.214200 226 371ft 0kts
22-Dec-17 17:05 44.117558 -123.214200 226 371ft 0kts
22-Dec-17 17:06 44.117558 -123.214200 226 371ft 0kts
22-Dec-17 17:07 44.117558 -123.214201 226 371ft 0kts
22-Dec-17 17:08 44.117558 -123.214201 226 371ft 0kts
22-Dec-17 17:09 44.117557 -123.214202 226 371ft 0kts
22-Dec-17 17:10 44.117557 -123.214202 226 371ft 0kts
22-Dec-17 17:11 44.117557 -123.214202 226 371ft 0kts
22-Dec-17 17:12 44.117557 -123.214203 226 371ft 0kts
22-Dec-17 17:13 44.117556 -123.214203 226 371ft 0kts
22-Dec-17 17:14 44.117542 -123.214239 254 371ft 1kts
22-Dec-17 17:15 44.119301 -123.216235 307 371ft 11kts
22-Dec-17 17:16 44.124058 -123.217184 358 371ft 20kts
22-Dec-17 17:17 44.127160 -123.217220 1 371ft 9kts
22-Dec-17 17:18 44.133783 -123.217293 359 371ft 24kts
22-Dec-17 17:19 44.135248 -123.219081 198 371ft 11kts
22-Dec-17 17:20 44.112285 -123.218411 180 1189ft 150kts
22-Dec-17 17:21 44.069530 -123.217101 168 4678ft 164kts
22-Dec-17 17:22 44.045423 -123.165294 97 7458ft 202kts
22-Dec-17 17:23 44.038013 -123.076172 96 9679ft 257kts
22-Dec-17 17:24 44.069979 -123.006788 1 12731ft 208kts
22-Dec-17 17:25 44.124422 -122.995706 354 15764ft 191kts
22-Dec-17 17:26 44.177898 -122.984170 354 18176ft 198kts
22-Dec-17 17:27 44.233583 -122.970951 354 20219ft 208kts
22-Dec-17 17:28 44.291583 -122.956832 354 22129ft 213kts
22-Dec-17 17:29 44.350805 -122.942379 354 23823ft 219kts
22-Dec-17 17:30 44.415921 -122.927062 355 24551ft 258kts
22-Dec-17 17:31 44.486586 -122.909284 354 25999ft 255kts
22-Dec-17 17:32 44.560111 -122.891522 354 26352ft 284kts
22-Dec-17 17:33 44.641837 -122.871709 356 26342ft 309kts
22-Dec-17 17:34 44.726699 -122.850354 356 26335ft 309kts
22-Dec-17 17:35 44.811738 -122.829026 356 26332ft 310kts
22-Dec-17 17:36 44.896506 -122.807898 356 26330ft 310kts
22-Dec-17 17:37 44.981581 -122.786668 355 26329ft 309kts
22-Dec-17 17:38 45.066295 -122.765482 355 26329ft 309kts
22-Dec-17 17:39 45.150992 -122.744245 355 26329ft 309kts
22-Dec-17 17:40 45.235678 -122.722936 355 26330ft 308kts
22-Dec-17 17:41 45.320002 -122.701669 355 26328ft 308kts
22-Dec-17 17:42 45.404610 -122.680253 355 26327ft 308kts
22-Dec-17 17:43 45.488852 -122.658854 355 26327ft 307kts
22-Dec-17 17:44 45.573068 -122.637383 355 26330ft 308kts
22-Dec-17 17:45 45.657256 -122.615799 355 26329ft 306kts
22-Dec-17 17:46 45.741029 -122.594213 355 26330ft 305kts
22-Dec-17 17:47 45.824211 -122.578773 350 26331ft 300kts
22-Dec-17 17:48 45.907278 -122.566104 350 26333ft 298kts
22-Dec-17 17:49 45.989750 -122.553061 351 26335ft 298kts
22-Dec-17 17:50 46.072275 -122.539680 350 26336ft 298kts
22-Dec-17 17:51 46.154553 -122.526311 350 26338ft 298kts
22-Dec-17 17:52 46.236836 -122.512655 351 26339ft 298kts
22-Dec-17 17:53 46.319503 -122.498411 350 26339ft 298kts
22-Dec-17 17:54 46.401778 -122.484577 350 26334ft 297kts
22-Dec-17 17:55 46.484217 -122.470912 350 26339ft 297kts
22-Dec-17 17:56 46.566385 -122.457290 350 26336ft 297kts
22-Dec-17 17:57 46.648482 -122.443611 350 26336ft 297kts
22-Dec-17 17:58 46.730715 -122.429867 350 26336ft 296kts
22-Dec-17 17:59 46.812620 -122.416134 350 26336ft 296kts
22-Dec-17 18:00 46.894379 -122.402299 350 26335ft 295kts
22-Dec-17 18:01 46.976186 -122.388519 350 25126ft 293kts
22-Dec-17 18:02 47.056655 -122.374912 351 23657ft 289kts
22-Dec-17 18:03 47.136459 -122.361376 351 22475ft 286kts
22-Dec-17 18:04 47.215310 -122.347958 351 21372ft 284kts
22-Dec-17 18:05 47.293468 -122.334612 351 20274ft 282kts
22-Dec-17 18:06 47.371221 -122.321250 351 19489ft 280kts
22-Dec-17 18:07 47.448406 -122.308978 345 18800ft 269kts
22-Dec-17 18:08 47.518245 -122.332126 333 17608ft 254kts
22-Dec-17 18:09 47.587550 -122.358700 336 16416ft 259kts
22-Dec-17 18:10 47.658280 -122.382868 337 16159ft 261kts
22-Dec-17 18:11 47.729681 -122.406609 339 14767ft 262kts
22-Dec-17 18:12 47.801045 -122.430276 341 12995ft 263kts
22-Dec-17 18:13 47.872738 -122.453813 344 11190ft 263kts
22-Dec-17 18:14 47.944279 -122.476951 344 10118ft 262kts
22-Dec-17 18:15 48.012603 -122.499358 345 9972ft 241kts
22-Dec-17 18:16 48.077630 -122.521004 345 9490ft 238kts
22-Dec-17 18:17 48.139314 -122.541791 346 8288ft 220kts
22-Dec-17 18:18 48.191318 -122.559140 346 7140ft 187kts
22-Dec-17 18:19 48.240641 -122.575602 347 5934ft 177kts
22-Dec-17 18:20 48.288235 -122.591551 347 4735ft 175kts
22-Dec-17 18:21 48.335723 -122.607562 347 3540ft 173kts
22-Dec-17 18:22 48.382375 -122.623292 347 3020ft 166kts
22-Dec-17 18:23 48.424663 -122.637414 348 2010ft 153kts
22-Dec-17 18:24 48.464215 -122.650660 348 1705ft 137kts
22-Dec-17 18:25 48.500717 -122.647101 18 1635ft 121kts
22-Dec-17 18:26 48.512658 -122.681318 253 1679ft 120kts
22-Dec-17 18:27 48.493560 -122.721300 184 1581ft 121kts
22-Dec-17 18:28 48.461161 -122.712068 154 1218ft 116kts
22-Dec-17 18:29 48.463399 -122.676629 19 1050ft 99kts
22-Dec-17 18:30 48.491221 -122.666664 18 384ft 97kts
22-Dec-17 18:31 48.500379 -122.661004 111 247ft 1kts
22-Dec-17 18:32 48.498351 -122.661687 129 247ft 3kts
22-Dec-17 18:33 48.498400 -122.660762 353 247ft 1kts
22-Dec-17 18:34 48.498497 -122.660828 309 247ft 0kts
22-Dec-17 18:35 48.498497 -122.660828 309 247ft 0kts

Navigation Log

Ident Type
Flight plan parsing failed, navigation log unavailable